sensor_id;sensor_type;location;lat;lon;timestamp;P1;durP1;ratioP1;P2;durP2;ratioP2
21554;SDS011;10938;44.794;-0.676;2023-04-25T00:00:20;12.65;;;8.05;;
21554;SDS011;10938;44.794;-0.676;2023-04-25T00:02:45;9.52;;;6.50;;
21554;SDS011;10938;44.794;-0.676;2023-04-25T00:05:11;14.70;;;8.38;;
21554;SDS011;10938;44.794;-0.676;2023-04-25T00:07:36;8.63;;;6.22;;
21554;SDS011;10938;44.794;-0.676;2023-04-25T00:10:02;6.68;;;5.38;;
21554;SDS011;10938;44.794;-0.676;2023-04-25T00:12:28;6.97;;;5.80;;
21554;SDS011;10938;44.794;-0.676;2023-04-25T00:14:53;5.60;;;5.03;;
21554;SDS011;10938;44.794;-0.676;2023-04-25T00:17:21;6.03;;;4.57;;
21554;SDS011;10938;44.794;-0.676;2023-04-25T00:19:47;5.80;;;4.65;;
21554;SDS011;10938;44.794;-0.676;2023-04-25T00:22:12;7.38;;;6.05;;
21554;SDS011;10938;44.794;-0.676;2023-04-25T00:24:38;9.32;;;5.88;;
21554;SDS011;10938;44.794;-0.676;2023-04-25T00:27:03;7.65;;;5.85;;
21554;SDS011;10938;44.794;-0.676;2023-04-25T00:29:28;10.33;;;7.40;;
21554;SDS011;10938;44.794;-0.676;2023-04-25T00:31:54;10.27;;;6.50;;
21554;SDS011;10938;44.794;-0.676;2023-04-25T00:34:19;8.13;;;6.47;;
21554;SDS011;10938;44.794;-0.676;2023-04-25T00:36:44;7.78;;;6.10;;
21554;SDS011;10938;44.794;-0.676;2023-04-25T00:39:09;8.18;;;5.93;;
21554;SDS011;10938;44.794;-0.676;2023-04-25T00:41:35;8.23;;;6.47;;
21554;SDS011;10938;44.794;-0.676;2023-04-25T00:44:00;8.10;;;6.53;;
21554;SDS011;10938;44.794;-0.676;2023-04-25T00:46:27;9.57;;;7.10;;
21554;SDS011;10938;44.794;-0.676;2023-04-25T00:48:52;5.70;;;5.13;;
21554;SDS011;10938;44.794;-0.676;2023-04-25T00:51:19;12.73;;;7.85;;
21554;SDS011;10938;44.794;-0.676;2023-04-25T00:53:44;6.93;;;6.18;;
21554;SDS011;10938;44.794;-0.676;2023-04-25T00:56:10;6.30;;;5.07;;
21554;SDS011;10938;44.794;-0.676;2023-04-25T00:58:35;5.90;;;5.30;;
21554;SDS011;10938;44.794;-0.676;2023-04-25T01:01:01;7.65;;;5.38;;
21554;SDS011;10938;44.794;-0.676;2023-04-25T01:03:27;6.47;;;5.75;;
21554;SDS011;10938;44.794;-0.676;2023-04-25T01:05:53;7.15;;;5.50;;
21554;SDS011;10938;44.794;-0.676;2023-04-25T01:08:19;6.13;;;4.90;;
21554;SDS011;10938;44.794;-0.676;2023-04-25T01:10:46;4.82;;;4.03;;
21554;SDS011;10938;44.794;-0.676;2023-04-25T01:13:11;6.25;;;4.82;;
21554;SDS011;10938;44.794;-0.676;2023-04-25T01:15:37;7.63;;;5.22;;
21554;SDS011;10938;44.794;-0.676;2023-04-25T01:18:02;5.82;;;4.78;;
21554;SDS011;10938;44.794;-0.676;2023-04-25T01:20:31;7.45;;;4.35;;
21554;SDS011;10938;44.794;-0.676;2023-04-25T01:22:57;5.72;;;5.22;;
21554;SDS011;10938;44.794;-0.676;2023-04-25T01:25:22;7.32;;;5.72;;
21554;SDS011;10938;44.794;-0.676;2023-04-25T01:27:47;6.22;;;4.75;;
21554;SDS011;10938;44.794;-0.676;2023-04-25T01:30:13;6.18;;;5.45;;
21554;SDS011;10938;44.794;-0.676;2023-04-25T01:32:38;6.45;;;5.20;;
21554;SDS011;10938;44.794;-0.676;2023-04-25T01:35:05;5.18;;;4.68;;
21554;SDS011;10938;44.794;-0.676;2023-04-25T01:37:35;4.97;;;4.57;;
21554;SDS011;10938;44.794;-0.676;2023-04-25T01:40:00;5.80;;;5.00;;
21554;SDS011;10938;44.794;-0.676;2023-04-25T01:42:26;5.93;;;4.82;;
21554;SDS011;10938;44.794;-0.676;2023-04-25T01:44:51;5.30;;;4.80;;
21554;SDS011;10938;44.794;-0.676;2023-04-25T01:47:16;6.27;;;5.10;;
21554;SDS011;10938;44.794;-0.676;2023-04-25T01:49:41;6.40;;;5.17;;
21554;SDS011;10938;44.794;-0.676;2023-04-25T01:52:07;6.97;;;6.13;;
21554;SDS011;10938;44.794;-0.676;2023-04-25T01:54:32;7.10;;;5.85;;
21554;SDS011;10938;44.794;-0.676;2023-04-25T01:56:58;8.38;;;6.30;;
21554;SDS011;10938;44.794;-0.676;2023-04-25T01:59:23;9.00;;;7.18;;
21554;SDS011;10938;44.794;-0.676;2023-04-25T02:01:48;8.80;;;6.57;;
21554;SDS011;10938;44.794;-0.676;2023-04-25T02:04:14;7.73;;;6.10;;
21554;SDS011;10938;44.794;-0.676;2023-04-25T02:06:39;6.38;;;5.78;;
21554;SDS011;10938;44.794;-0.676;2023-04-25T02:09:07;5.78;;;5.18;;
21554;SDS011;10938;44.794;-0.676;2023-04-25T02:11:32;7.85;;;6.45;;
21554;SDS011;10938;44.794;-0.676;2023-04-25T02:13:58;5.90;;;5.13;;
21554;SDS011;10938;44.794;-0.676;2023-04-25T02:16:23;6.17;;;4.93;;
21554;SDS011;10938;44.794;-0.676;2023-04-25T02:18:50;6.85;;;5.25;;
21554;SDS011;10938;44.794;-0.676;2023-04-25T02:21:17;8.90;;;6.55;;
21554;SDS011;10938;44.794;-0.676;2023-04-25T02:23:42;7.20;;;5.53;;
21554;SDS011;10938;44.794;-0.676;2023-04-25T02:26:08;5.35;;;4.85;;
21554;SDS011;10938;44.794;-0.676;2023-04-25T02:28:33;5.50;;;5.00;;
21554;SDS011;10938;44.794;-0.676;2023-04-25T02:30:58;7.13;;;6.10;;
21554;SDS011;10938;44.794;-0.676;2023-04-25T02:33:24;7.10;;;5.53;;
21554;SDS011;10938;44.794;-0.676;2023-04-25T02:35:49;5.28;;;4.53;;
21554;SDS011;10938;44.794;-0.676;2023-04-25T02:38:14;4.60;;;4.15;;
21554;SDS011;10938;44.794;-0.676;2023-04-25T02:40:40;5.35;;;4.85;;
21554;SDS011;10938;44.794;-0.676;2023-04-25T02:43:06;6.82;;;5.35;;
21554;SDS011;10938;44.794;-0.676;2023-04-25T02:45:32;6.20;;;5.28;;
21554;SDS011;10938;44.794;-0.676;2023-04-25T02:47:57;6.30;;;4.43;;
21554;SDS011;10938;44.794;-0.676;2023-04-25T02:50:22;5.17;;;3.97;;
21554;SDS011;10938;44.794;-0.676;2023-04-25T02:52:48;6.70;;;4.28;;
21554;SDS011;10938;44.794;-0.676;2023-04-25T02:55:13;4.65;;;4.20;;
21554;SDS011;10938;44.794;-0.676;2023-04-25T02:57:39;5.00;;;3.97;;
21554;SDS011;10938;44.794;-0.676;2023-04-25T03:00:04;4.78;;;3.90;;
21554;SDS011;10938;44.794;-0.676;2023-04-25T03:02:30;5.53;;;3.90;;
21554;SDS011;10938;44.794;-0.676;2023-04-25T03:04:55;5.65;;;3.80;;
21554;SDS011;10938;44.794;-0.676;2023-04-25T03:07:21;6.32;;;3.47;;
21554;SDS011;10938;44.794;-0.676;2023-04-25T03:09:46;4.10;;;3.70;;
21554;SDS011;10938;44.794;-0.676;2023-04-25T03:12:11;5.95;;;4.22;;
21554;SDS011;10938;44.794;-0.676;2023-04-25T03:14:37;5.80;;;4.18;;
21554;SDS011;10938;44.794;-0.676;2023-04-25T03:17:02;4.00;;;3.60;;
21554;SDS011;10938;44.794;-0.676;2023-04-25T03:19:27;6.10;;;4.10;;
21554;SDS011;10938;44.794;-0.676;2023-04-25T03:21:53;3.73;;;3.40;;
21554;SDS011;10938;44.794;-0.676;2023-04-25T03:24:18;5.57;;;3.85;;
21554;SDS011;10938;44.794;-0.676;2023-04-25T03:26:44;5.53;;;3.55;;
21554;SDS011;10938;44.794;-0.676;2023-04-25T03:29:09;4.45;;;4.05;;
21554;SDS011;10938;44.794;-0.676;2023-04-25T03:31:34;4.90;;;4.20;;
21554;SDS011;10938;44.794;-0.676;2023-04-25T03:33:59;7.10;;;5.40;;
21554;SDS011;10938;44.794;-0.676;2023-04-25T03:36:25;8.57;;;5.43;;
21554;SDS011;10938;44.794;-0.676;2023-04-25T03:38:50;7.20;;;4.67;;
21554;SDS011;10938;44.794;-0.676;2023-04-25T03:41:15;7.28;;;5.30;;
21554;SDS011;10938;44.794;-0.676;2023-04-25T03:43:41;5.50;;;4.67;;
21554;SDS011;10938;44.794;-0.676;2023-04-25T03:46:06;5.07;;;4.50;;
21554;SDS011;10938;44.794;-0.676;2023-04-25T03:48:31;7.25;;;5.57;;
21554;SDS011;10938;44.794;-0.676;2023-04-25T03:50:57;8.45;;;6.35;;
21554;SDS011;10938;44.794;-0.676;2023-04-25T03:53:22;8.23;;;5.43;;
21554;SDS011;10938;44.794;-0.676;2023-04-25T03:55:47;11.00;;;6.68;;
21554;SDS011;10938;44.794;-0.676;2023-04-25T03:58:12;9.00;;;6.47;;
21554;SDS011;10938;44.794;-0.676;2023-04-25T04:00:38;8.43;;;6.73;;
21554;SDS011;10938;44.794;-0.676;2023-04-25T04:03:03;5.90;;;5.33;;
21554;SDS011;10938;44.794;-0.676;2023-04-25T04:05:28;5.87;;;4.60;;
21554;SDS011;10938;44.794;-0.676;2023-04-25T04:07:54;4.53;;;4.13;;
21554;SDS011;10938;44.794;-0.676;2023-04-25T04:10:19;4.07;;;3.53;;
21554;SDS011;10938;44.794;-0.676;2023-04-25T04:12:44;4.70;;;4.15;;
21554;SDS011;10938;44.794;-0.676;2023-04-25T04:15:10;4.95;;;4.45;;
21554;SDS011;10938;44.794;-0.676;2023-04-25T04:17:35;5.68;;;4.97;;
21554;SDS011;10938;44.794;-0.676;2023-04-25T04:20:00;5.40;;;4.65;;
21554;SDS011;10938;44.794;-0.676;2023-04-25T04:22:26;4.88;;;4.35;;
21554;SDS011;10938;44.794;-0.676;2023-04-25T04:24:51;4.30;;;3.80;;
21554;SDS011;10938;44.794;-0.676;2023-04-25T04:27:21;5.60;;;4.63;;
21554;SDS011;10938;44.794;-0.676;2023-04-25T04:29:47;5.40;;;4.88;;
21554;SDS011;10938;44.794;-0.676;2023-04-25T04:32:13;6.68;;;4.63;;
21554;SDS011;10938;44.794;-0.676;2023-04-25T04:34:38;5.97;;;4.63;;
21554;SDS011;10938;44.794;-0.676;2023-04-25T04:37:04;5.22;;;4.38;;
21554;SDS011;10938;44.794;-0.676;2023-04-25T04:39:30;6.03;;;5.32;;
21554;SDS011;10938;44.794;-0.676;2023-04-25T04:41:55;7.18;;;5.90;;
21554;SDS011;10938;44.794;-0.676;2023-04-25T04:44:21;8.70;;;6.95;;
21554;SDS011;10938;44.794;-0.676;2023-04-25T04:46:46;13.33;;;6.60;;
21554;SDS011;10938;44.794;-0.676;2023-04-25T04:49:11;15.52;;;8.77;;
21554;SDS011;10938;44.794;-0.676;2023-04-25T04:51:38;11.68;;;7.63;;
21554;SDS011;10938;44.794;-0.676;2023-04-25T04:54:03;9.48;;;7.45;;
21554;SDS011;10938;44.794;-0.676;2023-04-25T04:56:29;8.98;;;7.00;;
21554;SDS011;10938;44.794;-0.676;2023-04-25T04:58:59;9.43;;;7.65;;
21554;SDS011;10938;44.794;-0.676;2023-04-25T05:01:25;19.48;;;8.90;;
21554;SDS011;10938;44.794;-0.676;2023-04-25T05:03:51;12.60;;;8.23;;
21554;SDS011;10938;44.794;-0.676;2023-04-25T05:06:16;13.80;;;9.43;;
21554;SDS011;10938;44.794;-0.676;2023-04-25T05:08:42;21.83;;;11.35;;
21554;SDS011;10938;44.794;-0.676;2023-04-25T05:11:07;17.42;;;11.02;;
21554;SDS011;10938;44.794;-0.676;2023-04-25T05:13:32;16.90;;;11.43;;
21554;SDS011;10938;44.794;-0.676;2023-04-25T05:15:57;19.20;;;13.37;;
21554;SDS011;10938;44.794;-0.676;2023-04-25T05:18:23;26.50;;;14.57;;
21554;SDS011;10938;44.794;-0.676;2023-04-25T05:20:48;18.23;;;12.05;;
21554;SDS011;10938;44.794;-0.676;2023-04-25T05:23:13;21.37;;;13.10;;
21554;SDS011;10938;44.794;-0.676;2023-04-25T05:25:39;17.83;;;10.63;;
21554;SDS011;10938;44.794;-0.676;2023-04-25T05:28:04;9.95;;;8.82;;
21554;SDS011;10938;44.794;-0.676;2023-04-25T05:30:30;17.33;;;11.70;;
21554;SDS011;10938;44.794;-0.676;2023-04-25T05:32:55;11.55;;;9.23;;
21554;SDS011;10938;44.794;-0.676;2023-04-25T05:35:21;16.37;;;10.47;;
21554;SDS011;10938;44.794;-0.676;2023-04-25T05:37:46;13.63;;;10.00;;
21554;SDS011;10938;44.794;-0.676;2023-04-25T05:40:11;13.27;;;9.10;;
21554;SDS011;10938;44.794;-0.676;2023-04-25T05:42:37;13.85;;;10.73;;
21554;SDS011;10938;44.794;-0.676;2023-04-25T05:45:02;11.55;;;9.75;;
21554;SDS011;10938;44.794;-0.676;2023-04-25T05:47:27;11.93;;;9.50;;
21554;SDS011;10938;44.794;-0.676;2023-04-25T05:49:53;9.32;;;8.27;;
21554;SDS011;10938;44.794;-0.676;2023-04-25T05:52:18;11.53;;;8.50;;
21554;SDS011;10938;44.794;-0.676;2023-04-25T05:54:43;12.43;;;10.02;;
21554;SDS011;10938;44.794;-0.676;2023-04-25T05:57:14;11.10;;;8.77;;
21554;SDS011;10938;44.794;-0.676;2023-04-25T05:59:43;13.02;;;9.65;;
21554;SDS011;10938;44.794;-0.676;2023-04-25T06:02:08;11.98;;;9.00;;
21554;SDS011;10938;44.794;-0.676;2023-04-25T06:04:33;14.60;;;10.83;;
21554;SDS011;10938;44.794;-0.676;2023-04-25T06:06:58;10.20;;;9.10;;
21554;SDS011;10938;44.794;-0.676;2023-04-25T06:09:25;11.02;;;8.88;;
21554;SDS011;10938;44.794;-0.676;2023-04-25T06:11:50;10.13;;;8.63;;
21554;SDS011;10938;44.794;-0.676;2023-04-25T06:14:15;11.13;;;9.00;;
21554;SDS011;10938;44.794;-0.676;2023-04-25T06:16:41;10.63;;;7.78;;
21554;SDS011;10938;44.794;-0.676;2023-04-25T06:19:06;10.40;;;7.83;;
21554;SDS011;10938;44.794;-0.676;2023-04-25T06:21:31;10.25;;;8.98;;
21554;SDS011;10938;44.794;-0.676;2023-04-25T06:23:57;8.88;;;7.28;;
21554;SDS011;10938;44.794;-0.676;2023-04-25T06:26:22;7.43;;;6.73;;
21554;SDS011;10938;44.794;-0.676;2023-04-25T06:28:48;7.57;;;6.10;;
21554;SDS011;10938;44.794;-0.676;2023-04-25T06:31:13;6.90;;;5.70;;
21554;SDS011;10938;44.794;-0.676;2023-04-25T06:33:38;9.33;;;6.83;;
21554;SDS011;10938;44.794;-0.676;2023-04-25T06:36:03;6.97;;;5.73;;
21554;SDS011;10938;44.794;-0.676;2023-04-25T06:38:29;6.65;;;4.88;;
21554;SDS011;10938;44.794;-0.676;2023-04-25T06:40:58;8.35;;;5.55;;
21554;SDS011;10938;44.794;-0.676;2023-04-25T06:43:29;8.52;;;5.47;;
21554;SDS011;10938;44.794;-0.676;2023-04-25T06:46:01;6.28;;;4.95;;
21554;SDS011;10938;44.794;-0.676;2023-04-25T06:48:27;6.35;;;4.45;;
21554;SDS011;10938;44.794;-0.676;2023-04-25T06:50:52;8.20;;;4.57;;
21554;SDS011;10938;44.794;-0.676;2023-04-25T06:53:17;8.20;;;5.23;;
21554;SDS011;10938;44.794;-0.676;2023-04-25T06:55:43;9.90;;;4.45;;
21554;SDS011;10938;44.794;-0.676;2023-04-25T06:58:09;6.35;;;4.90;;
21554;SDS011;10938;44.794;-0.676;2023-04-25T07:00:34;9.07;;;4.15;;
21554;SDS011;10938;44.794;-0.676;2023-04-25T07:03:02;8.40;;;4.68;;
21554;SDS011;10938;44.794;-0.676;2023-04-25T07:05:28;9.80;;;5.15;;
21554;SDS011;10938;44.794;-0.676;2023-04-25T07:07:53;8.68;;;5.45;;
21554;SDS011;10938;44.794;-0.676;2023-04-25T07:10:19;8.35;;;5.60;;
21554;SDS011;10938;44.794;-0.676;2023-04-25T07:12:44;9.70;;;6.10;;
21554;SDS011;10938;44.794;-0.676;2023-04-25T07:15:09;8.65;;;6.13;;
21554;SDS011;10938;44.794;-0.676;2023-04-25T07:17:36;7.70;;;5.05;;
21554;SDS011;10938;44.794;-0.676;2023-04-25T07:20:02;9.35;;;5.75;;
21554;SDS011;10938;44.794;-0.676;2023-04-25T07:22:28;7.45;;;5.65;;
21554;SDS011;10938;44.794;-0.676;2023-04-25T07:24:54;8.38;;;5.20;;
21554;SDS011;10938;44.794;-0.676;2023-04-25T07:27:20;8.20;;;5.55;;
21554;SDS011;10938;44.794;-0.676;2023-04-25T07:29:45;7.85;;;6.25;;
21554;SDS011;10938;44.794;-0.676;2023-04-25T07:32:11;10.65;;;6.38;;
21554;SDS011;10938;44.794;-0.676;2023-04-25T07:34:38;10.70;;;6.72;;
21554;SDS011;10938;44.794;-0.676;2023-04-25T07:37:04;8.80;;;6.00;;
21554;SDS011;10938;44.794;-0.676;2023-04-25T07:39:29;10.73;;;6.22;;
21554;SDS011;10938;44.794;-0.676;2023-04-25T07:41:57;10.57;;;7.15;;
21554;SDS011;10938;44.794;-0.676;2023-04-25T07:44:27;10.35;;;6.53;;
21554;SDS011;10938;44.794;-0.676;2023-04-25T07:46:52;9.60;;;6.60;;
21554;SDS011;10938;44.794;-0.676;2023-04-25T07:49:17;7.80;;;5.90;;
21554;SDS011;10938;44.794;-0.676;2023-04-25T07:51:42;10.73;;;6.50;;
21554;SDS011;10938;44.794;-0.676;2023-04-25T07:54:14;10.02;;;6.72;;
21554;SDS011;10938;44.794;-0.676;2023-04-25T07:56:39;9.10;;;6.53;;
21554;SDS011;10938;44.794;-0.676;2023-04-25T07:59:05;9.73;;;6.78;;
21554;SDS011;10938;44.794;-0.676;2023-04-25T08:01:30;14.93;;;7.32;;
21554;SDS011;10938;44.794;-0.676;2023-04-25T08:03:56;9.40;;;6.93;;
21554;SDS011;10938;44.794;-0.676;2023-04-25T08:06:21;12.80;;;6.53;;
21554;SDS011;10938;44.794;-0.676;2023-04-25T08:08:46;9.82;;;5.65;;
21554;SDS011;10938;44.794;-0.676;2023-04-25T08:11:11;11.10;;;6.00;;
21554;SDS011;10938;44.794;-0.676;2023-04-25T08:13:37;6.97;;;5.20;;
21554;SDS011;10938;44.794;-0.676;2023-04-25T08:16:02;8.30;;;5.55;;
21554;SDS011;10938;44.794;-0.676;2023-04-25T08:18:27;10.75;;;5.00;;
21554;SDS011;10938;44.794;-0.676;2023-04-25T08:20:53;5.32;;;4.47;;
21554;SDS011;10938;44.794;-0.676;2023-04-25T08:23:18;6.20;;;4.82;;
21554;SDS011;10938;44.794;-0.676;2023-04-25T08:25:44;6.63;;;5.10;;
21554;SDS011;10938;44.794;-0.676;2023-04-25T08:28:09;5.63;;;4.75;;
21554;SDS011;10938;44.794;-0.676;2023-04-25T08:30:34;6.33;;;4.20;;
21554;SDS011;10938;44.794;-0.676;2023-04-25T08:33:00;10.02;;;5.32;;
21554;SDS011;10938;44.794;-0.676;2023-04-25T08:35:25;6.67;;;4.57;;
21554;SDS011;10938;44.794;-0.676;2023-04-25T08:37:50;7.47;;;4.43;;
21554;SDS011;10938;44.794;-0.676;2023-04-25T08:40:16;6.15;;;4.63;;
21554;SDS011;10938;44.794;-0.676;2023-04-25T08:42:41;8.63;;;5.10;;
21554;SDS011;10938;44.794;-0.676;2023-04-25T08:45:07;7.10;;;5.00;;
21554;SDS011;10938;44.794;-0.676;2023-04-25T08:47:33;9.68;;;4.82;;
21554;SDS011;10938;44.794;-0.676;2023-04-25T08:49:59;6.47;;;4.85;;
21554;SDS011;10938;44.794;-0.676;2023-04-25T08:52:25;6.43;;;4.93;;
21554;SDS011;10938;44.794;-0.676;2023-04-25T08:54:52;5.63;;;4.10;;
21554;SDS011;10938;44.794;-0.676;2023-04-25T08:57:19;6.38;;;4.20;;
21554;SDS011;10938;44.794;-0.676;2023-04-25T08:59:45;7.28;;;4.15;;
21554;SDS011;10938;44.794;-0.676;2023-04-25T09:02:11;6.15;;;3.95;;
21554;SDS011;10938;44.794;-0.676;2023-04-25T09:04:44;6.28;;;3.47;;
21554;SDS011;10938;44.794;-0.676;2023-04-25T09:07:10;5.53;;;3.75;;
21554;SDS011;10938;44.794;-0.676;2023-04-25T09:09:35;7.57;;;3.50;;
21554;SDS011;10938;44.794;-0.676;2023-04-25T09:12:01;5.97;;;3.65;;
21554;SDS011;10938;44.794;-0.676;2023-04-25T09:14:26;8.10;;;4.05;;
21554;SDS011;10938;44.794;-0.676;2023-04-25T09:19:25;5.82;;;3.13;;
21554;SDS011;10938;44.794;-0.676;2023-04-25T09:21:55;7.15;;;3.70;;
21554;SDS011;10938;44.794;-0.676;2023-04-25T09:24:30;6.03;;;3.60;;
21554;SDS011;10938;44.794;-0.676;2023-04-25T09:26:56;5.80;;;3.30;;
21554;SDS011;10938;44.794;-0.676;2023-04-25T09:29:28;15.57;;;3.37;;
21554;SDS011;10938;44.794;-0.676;2023-04-25T09:31:53;4.60;;;3.58;;
21554;SDS011;10938;44.794;-0.676;2023-04-25T09:34:28;7.10;;;4.07;;
21554;SDS011;10938;44.794;-0.676;2023-04-25T09:37:01;7.07;;;4.10;;
21554;SDS011;10938;44.794;-0.676;2023-04-25T09:39:28;5.43;;;3.83;;
21554;SDS011;10938;44.794;-0.676;2023-04-25T09:42:02;4.85;;;4.20;;
21554;SDS011;10938;44.794;-0.676;2023-04-25T09:44:28;5.70;;;3.58;;
21554;SDS011;10938;44.794;-0.676;2023-04-25T09:46:53;6.67;;;4.30;;
21554;SDS011;10938;44.794;-0.676;2023-04-25T09:49:19;6.53;;;3.50;;
21554;SDS011;10938;44.794;-0.676;2023-04-25T09:51:58;4.97;;;3.40;;
21554;SDS011;10938;44.794;-0.676;2023-04-25T09:54:24;27.50;;;4.60;;
21554;SDS011;10938;44.794;-0.676;2023-04-25T09:56:49;7.25;;;4.25;;
21554;SDS011;10938;44.794;-0.676;2023-04-25T09:59:16;6.18;;;4.57;;
21554;SDS011;10938;44.794;-0.676;2023-04-25T10:01:41;6.07;;;4.22;;
21554;SDS011;10938;44.794;-0.676;2023-04-25T10:04:09;5.00;;;3.70;;
21554;SDS011;10938;44.794;-0.676;2023-04-25T10:06:37;5.85;;;4.28;;
21554;SDS011;10938;44.794;-0.676;2023-04-25T10:09:03;7.53;;;4.82;;
21554;SDS011;10938;44.794;-0.676;2023-04-25T10:11:29;6.47;;;4.32;;
21554;SDS011;10938;44.794;-0.676;2023-04-25T10:13:55;7.72;;;4.32;;
21554;SDS011;10938;44.794;-0.676;2023-04-25T10:16:21;4.78;;;3.83;;
21554;SDS011;10938;44.794;-0.676;2023-04-25T10:18:47;6.88;;;4.30;;
21554;SDS011;10938;44.794;-0.676;2023-04-25T10:21:13;5.65;;;3.85;;
21554;SDS011;10938;44.794;-0.676;2023-04-25T10:23:40;4.80;;;3.88;;
21554;SDS011;10938;44.794;-0.676;2023-04-25T10:26:05;6.07;;;3.88;;
21554;SDS011;10938;44.794;-0.676;2023-04-25T10:28:56;9.57;;;4.65;;
21554;SDS011;10938;44.794;-0.676;2023-04-25T10:31:22;6.25;;;4.53;;
21554;SDS011;10938;44.794;-0.676;2023-04-25T10:33:51;5.10;;;4.03;;
21554;SDS011;10938;44.794;-0.676;2023-04-25T10:36:20;10.23;;;5.35;;
21554;SDS011;10938;44.794;-0.676;2023-04-25T10:38:48;6.78;;;4.90;;
21554;SDS011;10938;44.794;-0.676;2023-04-25T10:41:17;8.50;;;5.65;;
21554;SDS011;10938;44.794;-0.676;2023-04-25T10:43:44;13.70;;;5.43;;
21554;SDS011;10938;44.794;-0.676;2023-04-25T10:48:57;5.18;;;3.75;;
21554;SDS011;10938;44.794;-0.676;2023-04-25T10:51:26;6.70;;;4.05;;
21554;SDS011;10938;44.794;-0.676;2023-04-25T10:54:02;7.53;;;4.65;;
21554;SDS011;10938;44.794;-0.676;2023-04-25T10:59:09;6.00;;;4.20;;
21554;SDS011;10938;44.794;-0.676;2023-04-25T11:01:36;6.78;;;3.83;;
21554;SDS011;10938;44.794;-0.676;2023-04-25T11:04:01;4.18;;;3.42;;
21554;SDS011;10938;44.794;-0.676;2023-04-25T11:08:52;6.60;;;3.37;;
21554;SDS011;10938;44.794;-0.676;2023-04-25T11:11:18;7.33;;;3.47;;
21554;SDS011;10938;44.794;-0.676;2023-04-25T11:13:44;5.22;;;3.53;;
21554;SDS011;10938;44.794;-0.676;2023-04-25T11:16:09;6.38;;;3.45;;
21554;SDS011;10938;44.794;-0.676;2023-04-25T11:18:35;4.13;;;3.33;;
21554;SDS011;10938;44.794;-0.676;2023-04-25T11:21:00;4.07;;;3.47;;
21554;SDS011;10938;44.794;-0.676;2023-04-25T11:23:26;5.07;;;3.50;;
21554;SDS011;10938;44.794;-0.676;2023-04-25T11:25:54;4.22;;;3.10;;
21554;SDS011;10938;44.794;-0.676;2023-04-25T11:28:20;5.10;;;3.53;;
21554;SDS011;10938;44.794;-0.676;2023-04-25T11:30:49;4.50;;;3.28;;
21554;SDS011;10938;44.794;-0.676;2023-04-25T11:33:15;4.32;;;3.13;;
21554;SDS011;10938;44.794;-0.676;2023-04-25T11:35:41;4.53;;;3.00;;
21554;SDS011;10938;44.794;-0.676;2023-04-25T11:38:06;4.90;;;2.83;;
21554;SDS011;10938;44.794;-0.676;2023-04-25T11:40:32;4.05;;;3.00;;
21554;SDS011;10938;44.794;-0.676;2023-04-25T11:42:59;3.65;;;3.10;;
21554;SDS011;10938;44.794;-0.676;2023-04-25T11:45:25;5.90;;;3.30;;
21554;SDS011;10938;44.794;-0.676;2023-04-25T11:47:50;4.03;;;2.95;;
21554;SDS011;10938;44.794;-0.676;2023-04-25T11:50:15;4.70;;;2.65;;
21554;SDS011;10938;44.794;-0.676;2023-04-25T11:52:47;3.53;;;2.60;;
21554;SDS011;10938;44.794;-0.676;2023-04-25T11:55:13;4.40;;;2.83;;
21554;SDS011;10938;44.794;-0.676;2023-04-25T11:57:39;3.83;;;2.90;;
21554;SDS011;10938;44.794;-0.676;2023-04-25T12:00:15;4.75;;;3.13;;
21554;SDS011;10938;44.794;-0.676;2023-04-25T12:02:42;3.65;;;2.90;;
21554;SDS011;10938;44.794;-0.676;2023-04-25T12:05:08;4.35;;;2.80;;
21554;SDS011;10938;44.794;-0.676;2023-04-25T12:07:34;5.47;;;2.95;;
21554;SDS011;10938;44.794;-0.676;2023-04-25T12:10:04;5.68;;;2.90;;
21554;SDS011;10938;44.794;-0.676;2023-04-25T12:12:32;4.10;;;2.90;;
21554;SDS011;10938;44.794;-0.676;2023-04-25T12:15:07;4.65;;;2.78;;
21554;SDS011;10938;44.794;-0.676;2023-04-25T12:17:33;3.92;;;2.65;;
21554;SDS011;10938;44.794;-0.676;2023-04-25T12:19:59;2.47;;;2.23;;
21554;SDS011;10938;44.794;-0.676;2023-04-25T12:22:24;4.25;;;2.90;;
21554;SDS011;10938;44.794;-0.676;2023-04-25T12:24:50;6.38;;;2.70;;
21554;SDS011;10938;44.794;-0.676;2023-04-25T12:27:16;3.78;;;2.58;;
21554;SDS011;10938;44.794;-0.676;2023-04-25T12:29:53;4.45;;;2.40;;
21554;SDS011;10938;44.794;-0.676;2023-04-25T12:32:18;6.85;;;3.08;;
21554;SDS011;10938;44.794;-0.676;2023-04-25T12:34:46;4.07;;;2.70;;
21554;SDS011;10938;44.794;-0.676;2023-04-25T12:37:12;5.72;;;2.80;;
21554;SDS011;10938;44.794;-0.676;2023-04-25T12:39:37;3.05;;;2.72;;
21554;SDS011;10938;44.794;-0.676;2023-04-25T12:42:02;3.38;;;2.75;;
21554;SDS011;10938;44.794;-0.676;2023-04-25T12:44:28;4.25;;;2.70;;
21554;SDS011;10938;44.794;-0.676;2023-04-25T12:46:53;2.97;;;2.30;;
21554;SDS011;10938;44.794;-0.676;2023-04-25T12:49:20;2.90;;;2.45;;
21554;SDS011;10938;44.794;-0.676;2023-04-25T12:51:45;2.85;;;2.08;;
21554;SDS011;10938;44.794;-0.676;2023-04-25T12:54:10;4.20;;;2.37;;
21554;SDS011;10938;44.794;-0.676;2023-04-25T12:56:36;3.58;;;2.33;;
21554;SDS011;10938;44.794;-0.676;2023-04-25T12:59:01;3.78;;;2.40;;
21554;SDS011;10938;44.794;-0.676;2023-04-25T13:01:28;4.82;;;2.83;;
21554;SDS011;10938;44.794;-0.676;2023-04-25T13:03:53;4.75;;;2.40;;
21554;SDS011;10938;44.794;-0.676;2023-04-25T13:06:19;5.70;;;2.45;;
21554;SDS011;10938;44.794;-0.676;2023-04-25T13:08:44;3.92;;;2.42;;
21554;SDS011;10938;44.794;-0.676;2023-04-25T13:11:09;2.72;;;2.20;;
21554;SDS011;10938;44.794;-0.676;2023-04-25T13:13:35;3.92;;;2.75;;
21554;SDS011;10938;44.794;-0.676;2023-04-25T13:16:01;3.63;;;2.47;;
21554;SDS011;10938;44.794;-0.676;2023-04-25T13:18:27;4.15;;;2.85;;
21554;SDS011;10938;44.794;-0.676;2023-04-25T13:20:52;3.63;;;2.58;;
21554;SDS011;10938;44.794;-0.676;2023-04-25T13:23:18;5.43;;;2.63;;
21554;SDS011;10938;44.794;-0.676;2023-04-25T13:25:44;3.80;;;2.55;;
21554;SDS011;10938;44.794;-0.676;2023-04-25T13:28:09;4.23;;;2.73;;
21554;SDS011;10938;44.794;-0.676;2023-04-25T13:30:34;2.97;;;2.63;;
21554;SDS011;10938;44.794;-0.676;2023-04-25T13:33:00;5.13;;;2.40;;
21554;SDS011;10938;44.794;-0.676;2023-04-25T13:35:28;5.25;;;2.55;;
21554;SDS011;10938;44.794;-0.676;2023-04-25T13:37:54;3.63;;;2.70;;
21554;SDS011;10938;44.794;-0.676;2023-04-25T13:40:19;3.28;;;2.45;;
21554;SDS011;10938;44.794;-0.676;2023-04-25T13:42:45;3.58;;;2.40;;
21554;SDS011;10938;44.794;-0.676;2023-04-25T13:45:10;4.13;;;2.72;;
21554;SDS011;10938;44.794;-0.676;2023-04-25T13:47:36;3.97;;;2.53;;
21554;SDS011;10938;44.794;-0.676;2023-04-25T13:50:01;2.70;;;2.42;;
21554;SDS011;10938;44.794;-0.676;2023-04-25T13:52:28;3.47;;;2.63;;
21554;SDS011;10938;44.794;-0.676;2023-04-25T13:54:53;3.95;;;2.80;;
21554;SDS011;10938;44.794;-0.676;2023-04-25T13:57:18;4.43;;;2.80;;
21554;SDS011;10938;44.794;-0.676;2023-04-25T13:59:44;3.53;;;2.80;;
21554;SDS011;10938;44.794;-0.676;2023-04-25T14:02:11;3.42;;;2.33;;
21554;SDS011;10938;44.794;-0.676;2023-04-25T14:04:36;2.95;;;2.13;;
21554;SDS011;10938;44.794;-0.676;2023-04-25T14:07:02;4.30;;;2.70;;
21554;SDS011;10938;44.794;-0.676;2023-04-25T14:09:27;5.30;;;2.50;;
21554;SDS011;10938;44.794;-0.676;2023-04-25T14:11:53;2.57;;;2.30;;
21554;SDS011;10938;44.794;-0.676;2023-04-25T14:14:18;2.83;;;2.15;;
21554;SDS011;10938;44.794;-0.676;2023-04-25T14:16:44;4.00;;;2.60;;
21554;SDS011;10938;44.794;-0.676;2023-04-25T14:19:09;3.70;;;2.25;;
21554;SDS011;10938;44.794;-0.676;2023-04-25T14:21:35;4.00;;;2.60;;
21554;SDS011;10938;44.794;-0.676;2023-04-25T14:24:00;4.37;;;2.90;;
21554;SDS011;10938;44.794;-0.676;2023-04-25T14:26:25;6.30;;;2.42;;
21554;SDS011;10938;44.794;-0.676;2023-04-25T14:28:51;6.77;;;3.30;;
21554;SDS011;10938;44.794;-0.676;2023-04-25T14:31:16;5.82;;;2.97;;
21554;SDS011;10938;44.794;-0.676;2023-04-25T14:33:42;3.70;;;2.57;;